Terminal Aerodrome Forecast
Issued by NWS

Home | Current Version | Previous Version | Graphics & Text | Print | Product List | Glossary On
Versions: 1 2 3 4 5 6 7 8 9 10 11 12 13 14 15 16 17 18 19 20 21 22
682
FTUS43 KGRB 161025 AAB
TAFMTW
TAF AMD
KMTW 161025Z 1610/1706 36007KT 2SM -SN SCT015 OVC035
      TEMPO 1610/1611 1/2SM SN BKN015
     FM161100 36009KT 1 1/2SM -SHSN OVC018
     FM161200 35011G17KT 6SM -SHSN BKN018
     FM161500 35010G16KT P6SM -SHSN BKN030
     FM161800 32007KT P6SM BKN050
     FM170100 29006KT P6SM SCT250=

USA.gov is the U.S. government's official web portal to all federal, state and local government web resources and services.